createdAt,value
2023-03-11T00:00:50.615Z,0.52
2023-03-11T00:03:24.513Z,-0.37
2023-03-11T00:05:54.865Z,0.37
2023-03-11T00:08:26.177Z,0.36
2023-03-11T00:10:58.684Z,0.35
2023-03-11T00:13:27.741Z,0.31
2023-03-11T00:15:57.577Z,0.43
2023-03-11T00:18:31.307Z,0.08
2023-03-11T00:21:01.011Z,-0.60
2023-03-11T00:23:29.550Z,0.25
2023-03-11T00:25:59.780Z,0.21
2023-03-11T00:28:28.033Z,0.32
2023-03-11T00:30:56.338Z,0.16
2023-03-11T00:33:28.208Z,0.33
2023-03-11T00:35:56.506Z,0.34
2023-03-11T00:38:24.786Z,0.31
2023-03-11T00:40:53.038Z,0.32
2023-03-11T00:43:21.574Z,0.21
2023-03-11T00:45:49.903Z,0.24
2023-03-11T00:48:18.231Z,0.15
2023-03-11T00:50:48.222Z,0.20
2023-03-11T00:53:16.411Z,0.22
2023-03-11T00:55:44.710Z,0.19
2023-03-11T00:58:14.347Z,0.15
2023-03-11T01:00:51.750Z,0.11
2023-03-11T01:03:20.110Z,0.13
2023-03-11T01:05:50.485Z,0.15
2023-03-11T01:08:18.682Z,0.13
2023-03-11T01:10:47.133Z,0.12
2023-03-11T01:13:15.692Z,0.10
2023-03-11T01:15:44.007Z,0.07
2023-03-11T01:18:12.425Z,0.09
2023-03-11T01:20:41.090Z,-0.01
2023-03-11T01:23:10.806Z,-0.25
2023-03-11T01:25:39.121Z,-0.25
2023-03-11T01:28:08.559Z,-0.53
2023-03-11T01:30:38.515Z,-0.42
2023-03-11T01:33:07.532Z,-0.55
2023-03-11T01:35:36.344Z,-0.53
2023-03-11T01:38:04.569Z,-0.52
2023-03-11T01:40:36.925Z,-0.86
2023-03-11T01:43:49.008Z,-0.59
2023-03-11T01:46:24.361Z,-0.62
2023-03-11T01:48:54.703Z,-0.76
2023-03-11T01:51:28.792Z,-0.60
2023-03-11T01:53:58.747Z,-0.71
2023-03-11T01:56:29.187Z,-0.74
2023-03-11T01:58:58.385Z,-0.78
2023-03-11T02:01:27.323Z,-0.82
2023-03-11T02:03:57.829Z,-0.94
2023-03-11T02:06:27.060Z,-0.94
2023-03-11T02:08:56.267Z,-0.90
2023-03-11T02:11:29.460Z,-1.02
2023-03-11T02:14:07.297Z,-1.01
2023-03-11T02:16:35.714Z,-1.21
2023-03-11T02:19:16.135Z,-0.68
2023-03-11T02:21:44.369Z,-1.26
2023-03-11T02:24:18.301Z,-1.29
2023-03-11T02:26:57.027Z,-1.39
2023-03-11T02:29:28.417Z,-1.49
2023-03-11T02:31:57.653Z,-1.46
2023-03-11T02:34:29.230Z,-1.48
2023-03-11T02:36:59.046Z,-1.45
2023-03-11T02:39:32.210Z,-1.44
2023-03-11T02:42:06.787Z,-1.57
2023-03-11T02:44:35.666Z,-1.39
2023-03-11T02:47:08.798Z,-1.51
2023-03-11T02:49:39.678Z,-1.57
2023-03-11T02:52:07.957Z,-1.58
2023-03-11T02:54:36.205Z,-1.52
2023-03-11T02:57:06.032Z,-1.32
2023-03-11T02:59:34.272Z,-1.45
2023-03-11T03:02:03.586Z,-1.47
2023-03-11T03:04:32.530Z,-1.46
2023-03-11T03:07:01.360Z,-1.43
2023-03-11T03:10:10.176Z,-1.47
2023-03-11T03:12:39.796Z,-1.55
2023-03-11T03:15:09.789Z,-1.60
2023-03-11T03:17:38.226Z,-1.52
2023-03-11T03:20:12.157Z,-1.52
2023-03-11T03:22:43.901Z,-1.52
2023-03-11T03:25:14.844Z,-1.65
2023-03-11T03:27:44.414Z,-1.47
2023-03-11T03:30:13.827Z,-1.62
2023-03-11T03:32:42.328Z,-1.59
2023-03-11T03:35:13.838Z,-1.49
2023-03-11T03:38:03.648Z,-1.50
2023-03-11T03:40:32.787Z,-1.32
2023-03-11T03:43:05.904Z,-1.63
2023-03-11T03:45:35.996Z,-1.51
2023-03-11T03:48:04.789Z,-1.61
2023-03-11T03:50:36.134Z,-1.50
2023-03-11T03:53:04.451Z,-1.58
2023-03-11T03:55:32.856Z,-1.51
2023-03-11T03:58:02.237Z,-1.50
2023-03-11T04:00:36.788Z,-1.48
2023-03-11T04:03:05.190Z,-1.49
2023-03-11T04:05:43.814Z,-1.50
2023-03-11T04:08:12.701Z,-1.38
2023-03-11T04:10:41.187Z,-1.51
2023-03-11T04:13:10.037Z,-1.44
2023-03-11T04:15:40.692Z,-1.36
2023-03-11T04:18:09.076Z,-1.45
2023-03-11T04:20:40.165Z,-1.46
2023-03-11T04:23:08.960Z,-1.37
2023-03-11T04:25:37.233Z,-1.53
2023-03-11T04:28:06.236Z,-1.33
2023-03-11T04:30:35.048Z,-1.46
2023-03-11T04:33:05.373Z,-1.40
2023-03-11T04:35:34.160Z,-1.44
2023-03-11T04:38:02.959Z,-1.48
2023-03-11T04:40:32.116Z,-1.43
2023-03-11T04:43:00.709Z,-2.37
2023-03-11T04:45:29.092Z,-1.43
2023-03-11T04:47:59.228Z,-1.52
2023-03-11T04:50:29.157Z,-1.46
2023-03-11T04:52:57.515Z,-1.45
2023-03-11T04:55:25.954Z,-1.55
2023-03-11T04:57:54.475Z,-1.55
2023-03-11T05:00:25.173Z,-1.59
2023-03-11T05:03:02.161Z,-1.55
2023-03-11T05:05:38.948Z,-1.47
2023-03-11T05:08:07.552Z,-1.55
2023-03-11T05:10:36.807Z,-1.58
2023-03-11T05:13:07.687Z,-1.56
2023-03-11T05:15:38.981Z,-1.58
2023-03-11T05:18:08.358Z,-1.68
2023-03-11T05:20:40.450Z,-1.70
2023-03-11T05:23:10.085Z,-1.80
2023-03-11T05:25:38.953Z,-1.62
2023-03-11T05:28:07.390Z,-1.67
2023-03-11T05:30:39.884Z,-1.64
2023-03-11T05:33:08.180Z,-2.10
2023-03-11T05:35:37.190Z,-1.57
2023-03-11T05:38:07.751Z,-1.68
2023-03-11T05:40:35.991Z,-1.52
2023-03-11T05:43:04.242Z,-1.67
2023-03-11T05:45:36.361Z,-1.70
2023-03-11T05:48:04.853Z,-1.76
2023-03-11T05:50:33.781Z,-2.50
2023-03-11T05:53:02.662Z,-1.73
2023-03-11T05:55:33.689Z,-1.76
2023-03-11T05:58:03.041Z,-1.82
2023-03-11T06:00:31.858Z,-1.74
2023-03-11T06:03:02.571Z,-1.67
2023-03-11T06:05:30.833Z,-1.71
2023-03-11T06:07:59.438Z,-1.74
2023-03-11T06:10:27.694Z,-1.74
2023-03-11T06:12:57.361Z,-1.68
2023-03-11T06:15:33.753Z,-1.79
2023-03-11T06:18:01.947Z,-1.71
2023-03-11T06:20:30.688Z,-2.44
2023-03-11T06:22:58.986Z,-1.80
2023-03-11T06:25:28.886Z,-1.85
2023-03-11T06:27:58.966Z,-1.81
2023-03-11T06:30:27.537Z,-1.66
2023-03-11T06:33:08.128Z,-1.67
2023-03-11T06:35:36.569Z,-1.74
2023-03-11T06:38:04.847Z,-1.69
2023-03-11T06:40:33.501Z,-1.68
2023-03-11T06:43:05.474Z,-1.93
2023-03-11T06:45:37.354Z,-1.73
2023-03-11T06:48:05.819Z,-1.67
2023-03-11T06:50:35.477Z,-1.75
2023-03-11T06:53:06.633Z,-1.74
2023-03-11T06:55:36.404Z,-1.67
2023-03-11T06:58:06.742Z,-1.62
2023-03-11T07:00:35.201Z,-1.69
2023-03-11T07:03:04.562Z,-1.05
2023-03-11T07:05:58.749Z,-1.56
2023-03-11T07:08:29.139Z,-1.63
2023-03-11T07:11:07.377Z,-1.62
2023-03-11T07:13:38.246Z,-1.57
2023-03-11T07:16:10.222Z,-1.58
2023-03-11T07:18:40.674Z,-1.63
2023-03-11T07:21:09.970Z,-1.58
2023-03-11T07:23:39.088Z,-1.46
2023-03-11T07:26:10.145Z,-1.29
2023-03-11T07:28:40.079Z,-1.46
2023-03-11T07:31:09.650Z,-1.30
2023-03-11T07:33:38.345Z,-1.33
2023-03-11T07:36:14.655Z,-1.22
2023-03-11T07:38:44.249Z,-1.27
2023-03-11T07:41:14.176Z,-1.29
2023-03-11T07:43:45.496Z,-2.15
2023-03-11T07:46:18.420Z,-1.02
2023-03-11T07:48:47.333Z,-1.14
2023-03-11T07:51:18.343Z,-1.05
2023-03-11T07:53:47.176Z,-0.82
2023-03-11T07:56:17.974Z,-0.86
2023-03-11T07:58:48.072Z,-0.99
2023-03-11T08:01:19.105Z,-1.23
2023-03-11T08:03:51.081Z,-1.11
2023-03-11T08:06:22.481Z,-1.28
2023-03-11T08:08:51.676Z,-1.17
2023-03-11T08:11:22.390Z,-1.16
2023-03-11T08:13:52.368Z,-1.24
2023-03-11T08:16:23.266Z,-1.48
2023-03-11T08:18:53.482Z,-1.17
2023-03-11T08:21:24.905Z,-1.07
2023-03-11T08:23:53.773Z,-0.91
2023-03-11T08:26:23.059Z,-0.83
2023-03-11T08:28:52.710Z,-0.78
2023-03-11T08:31:24.525Z,-0.81
2023-03-11T08:33:57.365Z,-1.29
2023-03-11T08:36:25.870Z,-0.82
2023-03-11T08:38:54.383Z,-0.75
2023-03-11T08:41:22.764Z,-0.88
2023-03-11T08:43:53.141Z,-0.71
2023-03-11T08:46:26.998Z,-0.92
2023-03-11T08:48:56.327Z,-0.79
2023-03-11T08:51:25.478Z,-1.14
2023-03-11T08:53:53.981Z,-0.46
2023-03-11T08:56:22.726Z,-0.46
2023-03-11T08:58:52.766Z,-0.43
2023-03-11T09:01:21.224Z,-0.37
2023-03-11T09:03:49.575Z,-0.39
2023-03-11T09:06:19.282Z,-1.07
2023-03-11T09:08:49.105Z,-0.34
2023-03-11T09:11:19.583Z,-0.42
2023-03-11T09:13:48.236Z,-0.12
2023-03-11T09:16:20.775Z,-0.16
2023-03-11T09:18:49.061Z,-0.06
2023-03-11T09:21:17.642Z,-0.18
2023-03-11T09:23:45.908Z,-0.09
2023-03-11T09:26:14.843Z,0.21
2023-03-11T09:28:48.780Z,0.11
2023-03-11T09:31:18.681Z,-0.32
2023-03-11T09:33:47.997Z,0.25
2023-03-11T09:36:22.274Z,0.53
2023-03-11T09:38:50.905Z,0.88
2023-03-11T09:41:29.757Z,0.40
2023-03-11T09:44:12.757Z,0.51
2023-03-11T09:47:16.417Z,0.51
2023-03-11T09:50:16.712Z,0.82
2023-03-11T09:52:52.759Z,0.89
2023-03-11T09:55:43.903Z,0.78
2023-03-11T09:58:17.877Z,0.97
2023-03-11T10:00:46.849Z,0.77
2023-03-11T10:03:30.922Z,0.86
2023-03-11T10:06:09.376Z,0.78
2023-03-11T10:08:45.543Z,1.00
2023-03-11T10:11:33.090Z,1.24
2023-03-11T10:14:22.149Z,1.46
2023-03-11T10:16:58.433Z,1.23
2023-03-11T10:19:40.812Z,1.38
2023-03-11T10:22:16.734Z,1.67
2023-03-11T10:25:06.022Z,2.00
2023-03-11T10:27:42.265Z,2.13
2023-03-11T10:30:25.423Z,2.08
2023-03-11T10:32:59.678Z,1.80
2023-03-11T10:35:39.207Z,2.21
2023-03-11T10:38:16.044Z,2.17
2023-03-11T10:40:46.919Z,1.91
2023-03-11T10:43:19.027Z,1.99
2023-03-11T10:45:50.910Z,1.77
2023-03-11T10:48:21.165Z,1.56
2023-03-11T10:50:58.695Z,1.63
2023-03-11T10:53:27.299Z,1.61
2023-03-11T10:55:58.389Z,1.79
2023-03-11T10:58:29.790Z,2.01
2023-03-11T11:01:06.572Z,1.91
2023-03-11T11:03:35.654Z,1.97
2023-03-11T11:06:08.495Z,1.98
2023-03-11T11:08:39.935Z,2.27
2023-03-11T11:11:23.140Z,1.90
2023-03-11T11:13:58.771Z,2.14
2023-03-11T11:16:27.890Z,2.46
2023-03-11T11:19:03.692Z,2.00
2023-03-11T11:21:37.204Z,1.00
2023-03-11T11:24:16.577Z,1.16
2023-03-11T11:27:04.662Z,1.81
2023-03-11T11:29:34.757Z,1.97
2023-03-11T11:32:21.062Z,1.87
2023-03-11T11:35:00.265Z,1.95
2023-03-11T11:37:33.460Z,2.43
2023-03-11T11:40:11.507Z,1.71
2023-03-11T11:42:42.450Z,2.71
2023-03-11T11:45:17.450Z,2.52
2023-03-11T11:47:50.782Z,2.73
2023-03-11T11:50:28.001Z,3.06
2023-03-11T11:53:05.613Z,2.62
2023-03-11T11:55:35.136Z,3.00
2023-03-11T11:58:03.400Z,2.95
2023-03-11T12:00:53.709Z,2.90
2023-03-11T12:03:59.356Z,2.53
2023-03-11T12:06:37.006Z,2.74
2023-03-11T12:09:24.380Z,2.62
2023-03-11T12:12:02.654Z,2.51
2023-03-11T12:14:38.262Z,2.46
2023-03-11T12:17:07.493Z,2.23
2023-03-11T12:19:43.850Z,2.22
2023-03-11T12:23:09.870Z,2.28
2023-03-11T12:25:47.137Z,2.34
2023-03-11T12:28:24.310Z,2.32
2023-03-11T12:30:55.471Z,2.12
2023-03-11T12:33:32.676Z,2.32
2023-03-11T12:36:03.455Z,1.90
2023-03-11T12:38:34.823Z,2.13
2023-03-11T12:41:08.832Z,2.07
2023-03-11T12:44:25.372Z,1.99
2023-03-11T12:47:25.083Z,2.15
2023-03-11T12:49:55.751Z,2.24
2023-03-11T12:52:29.740Z,2.18
2023-03-11T12:55:32.761Z,2.08
2023-03-11T12:58:53.790Z,1.77
2023-03-11T13:04:59.834Z,1.88
2023-03-11T13:07:49.587Z,1.86
2023-03-11T13:10:36.941Z,2.15
2023-03-11T13:13:43.941Z,2.07
2023-03-11T13:16:41.573Z,2.22
2023-03-11T13:19:54.185Z,2.04
2023-03-11T13:22:44.754Z,2.04
2023-03-11T13:25:38.259Z,2.38
2023-03-11T13:28:37.013Z,2.21
2023-03-11T13:31:30.748Z,2.30
2023-03-11T13:34:11.240Z,2.15
2023-03-11T13:37:17.726Z,2.36
2023-03-11T13:40:14.037Z,2.36
2023-03-11T13:42:47.602Z,2.78
2023-03-11T13:45:30.028Z,2.57
2023-03-11T13:48:02.778Z,2.75
2023-03-11T13:50:37.607Z,2.81
2023-03-11T13:53:11.469Z,2.83
2023-03-11T13:55:45.213Z,2.73
2023-03-11T13:58:21.175Z,2.69
2023-03-11T14:00:53.062Z,2.69
2023-03-11T14:03:25.281Z,2.41
2023-03-11T14:06:00.149Z,2.65
2023-03-11T14:08:31.666Z,2.68
2023-03-11T14:11:01.886Z,2.48
2023-03-11T14:13:31.326Z,2.59
2023-03-11T14:16:05.102Z,2.63
2023-03-11T14:18:38.344Z,2.59
2023-03-11T14:21:15.239Z,2.27
2023-03-11T14:23:46.466Z,2.34
2023-03-11T14:26:19.110Z,2.45
2023-03-11T14:28:51.229Z,2.40
2023-03-11T14:31:26.387Z,2.32
2023-03-11T14:34:04.075Z,2.24
2023-03-11T14:36:42.506Z,2.20
2023-03-11T14:39:32.137Z,2.22
2023-03-11T14:42:07.663Z,2.33
2023-03-11T14:44:39.573Z,2.28
2023-03-11T14:47:12.423Z,2.28
2023-03-11T14:49:41.829Z,2.37
2023-03-11T14:52:19.827Z,2.57
2023-03-11T14:54:49.957Z,2.38
2023-03-11T14:57:25.826Z,2.30
2023-03-11T14:59:56.230Z,2.27
2023-03-11T15:02:47.817Z,2.26
2023-03-11T15:05:47.478Z,2.29
2023-03-11T15:08:21.696Z,2.26
2023-03-11T15:11:15.160Z,2.42
2023-03-11T15:13:47.287Z,2.43
2023-03-11T15:16:27.287Z,2.44
2023-03-11T15:18:55.776Z,2.26
2023-03-11T15:21:25.855Z,2.20
2023-03-11T15:24:01.636Z,2.42
2023-03-11T15:26:32.649Z,2.30
2023-03-11T15:29:04.041Z,2.32
2023-03-11T15:31:37.524Z,1.95
2023-03-11T15:34:25.776Z,2.39
2023-03-11T15:37:04.578Z,2.35
2023-03-11T15:39:46.684Z,2.23
2023-03-11T15:42:24.423Z,2.90
2023-03-11T15:45:18.400Z,2.18
2023-03-11T15:47:48.918Z,2.08
2023-03-11T15:50:26.334Z,2.30
2023-03-11T15:52:59.386Z,2.26
2023-03-11T15:55:29.398Z,2.33
2023-03-11T15:58:05.140Z,1.99
2023-03-11T16:00:34.079Z,2.53
2023-03-11T16:03:02.650Z,2.14
2023-03-11T16:05:31.191Z,2.23
2023-03-11T16:07:59.463Z,2.34
2023-03-11T16:10:29.586Z,2.25
2023-03-11T16:12:57.874Z,2.40
2023-03-11T16:15:29.874Z,2.51
2023-03-11T16:18:00.362Z,2.28
2023-03-11T16:20:33.113Z,2.21
2023-03-11T16:23:02.423Z,2.31
2023-03-11T16:25:34.920Z,2.34
2023-03-11T16:28:03.975Z,1.19
2023-03-11T16:30:34.495Z,2.48
2023-03-11T16:33:04.789Z,2.28
2023-03-11T16:35:33.728Z,2.21
2023-03-11T16:38:02.217Z,1.40
2023-03-11T16:40:32.770Z,2.35
2023-03-11T16:43:03.677Z,2.33
2023-03-11T16:45:32.383Z,2.28
2023-03-11T16:48:00.840Z,2.36
2023-03-11T16:50:29.635Z,2.47
2023-03-11T16:52:59.251Z,2.32
2023-03-11T16:55:29.009Z,2.30
2023-03-11T16:57:59.058Z,2.28
2023-03-11T17:00:27.633Z,2.42
2023-03-11T17:02:55.811Z,2.13
2023-03-11T17:05:27.199Z,2.11
2023-03-11T17:08:00.954Z,2.14
2023-03-11T17:10:41.290Z,2.16
2023-03-11T17:13:13.060Z,1.62
2023-03-11T17:15:44.317Z,2.15
2023-03-11T17:18:15.068Z,1.73
2023-03-11T17:20:44.587Z,2.07
2023-03-11T17:23:12.958Z,1.99
2023-03-11T17:25:42.553Z,1.93
2023-03-11T17:28:12.829Z,1.93
2023-03-11T17:30:44.128Z,1.88
2023-03-11T17:33:12.962Z,1.97
2023-03-11T17:35:41.826Z,1.93
2023-03-11T17:38:10.338Z,1.91
2023-03-11T17:40:39.280Z,1.94
2023-03-11T17:43:07.650Z,1.91
2023-03-11T17:45:40.507Z,1.93
2023-03-11T17:48:10.929Z,1.80
2023-03-11T17:50:39.673Z,1.86
2023-03-11T17:53:08.607Z,1.30
2023-03-11T17:55:41.355Z,1.65
2023-03-11T17:58:10.179Z,1.60
2023-03-11T18:00:40.069Z,1.65
2023-03-11T18:03:08.490Z,1.52
2023-03-11T18:05:40.848Z,1.48
2023-03-11T18:08:10.489Z,1.37
2023-03-11T18:10:38.810Z,1.25
2023-03-11T18:13:07.352Z,1.20
2023-03-11T18:15:35.657Z,1.16
2023-03-11T18:18:06.094Z,1.00
2023-03-11T18:20:34.426Z,1.06
2023-03-11T18:23:02.856Z,1.05
2023-03-11T18:25:31.350Z,0.71
2023-03-11T18:27:59.783Z,0.75
2023-03-11T18:30:28.231Z,0.69
2023-03-11T18:32:56.623Z,0.67
2023-03-11T18:35:26.355Z,0.59
2023-03-11T18:37:54.735Z,0.53
2023-03-11T18:40:27.978Z,0.35
2023-03-11T18:42:56.267Z,0.35
2023-03-11T18:45:24.701Z,0.22
2023-03-11T18:47:52.980Z,0.14
2023-03-11T18:50:21.740Z,0.21
2023-03-11T18:52:54.244Z,0.27
2023-03-11T18:55:22.617Z,-0.32
2023-03-11T18:57:50.861Z,0.12
2023-03-11T19:00:23.550Z,0.10
2023-03-11T19:02:57.050Z,0.13
2023-03-11T19:05:52.688Z,-0.06
2023-03-11T19:08:23.035Z,-0.04
2023-03-11T19:10:51.598Z,-0.13
2023-03-11T19:13:20.684Z,-0.09
2023-03-11T19:15:49.264Z,-0.17
2023-03-11T19:18:18.375Z,-0.16
2023-03-11T19:20:46.847Z,-0.17
2023-03-11T19:23:15.413Z,-0.25
2023-03-11T19:26:00.702Z,-0.22
2023-03-11T19:28:31.302Z,-0.35
2023-03-11T19:31:00.689Z,-0.35
2023-03-11T19:33:29.325Z,-0.35
2023-03-11T19:36:00.659Z,-0.35
2023-03-11T19:38:30.397Z,-0.31
2023-03-11T19:41:06.392Z,-0.32
2023-03-11T19:43:36.394Z,-0.26
2023-03-11T19:46:06.667Z,-0.40
2023-03-11T19:48:35.373Z,-0.30
2023-03-11T19:51:05.703Z,-0.39
2023-03-11T19:53:35.656Z,-0.41
2023-03-11T19:56:06.771Z,-0.45
2023-03-11T19:58:35.572Z,-0.54
2023-03-11T20:01:04.113Z,-0.53
2023-03-11T20:03:32.769Z,-0.46
2023-03-11T20:06:06.244Z,-0.54
2023-03-11T20:08:37.250Z,-0.64
2023-03-11T20:11:07.420Z,-0.19
2023-03-11T20:13:38.118Z,-0.62
2023-03-11T20:16:09.420Z,-0.75
2023-03-11T20:18:37.905Z,-0.69
2023-03-11T20:21:08.489Z,-1.05
2023-03-11T20:23:37.558Z,-1.14
2023-03-11T20:26:10.015Z,-0.83
2023-03-11T20:28:38.480Z,-0.88
2023-03-11T20:31:13.706Z,-0.94
2023-03-11T20:33:42.414Z,-1.47
2023-03-11T20:36:13.641Z,-1.06
2023-03-11T20:38:42.097Z,-1.13
2023-03-11T20:41:12.247Z,-1.12
2023-03-11T20:43:41.981Z,-1.02
2023-03-11T20:46:11.448Z,-1.11
2023-03-11T20:48:40.371Z,-1.23
2023-03-11T20:51:11.653Z,-1.11
2023-03-11T20:53:40.568Z,-1.19
2023-03-11T20:56:12.933Z,-1.25
2023-03-11T20:58:41.518Z,-1.30
2023-03-11T21:01:15.289Z,-1.57
2023-03-11T21:04:09.471Z,-1.26
2023-03-11T21:06:40.898Z,-1.34
2023-03-11T21:09:13.274Z,-1.53
2023-03-11T21:11:43.392Z,-1.61
2023-03-11T21:14:12.409Z,-1.65
2023-03-11T21:16:40.770Z,-1.70
2023-03-11T21:19:10.244Z,-1.73
2023-03-11T21:21:38.865Z,-1.65
2023-03-11T21:24:08.127Z,-1.75
2023-03-11T21:26:36.729Z,-1.72
2023-03-11T21:29:06.373Z,-1.76
2023-03-11T21:31:35.035Z,-1.82
2023-03-11T21:34:03.857Z,-1.79
2023-03-11T21:36:32.292Z,-1.92
2023-03-11T21:39:03.326Z,-1.76
2023-03-11T21:41:32.096Z,-1.83
2023-03-11T21:44:00.440Z,-1.86
2023-03-11T21:46:32.845Z,-1.95
2023-03-11T21:49:02.183Z,-1.96
2023-03-11T21:51:30.972Z,-2.07
2023-03-11T21:53:59.727Z,-1.98
2023-03-11T21:56:28.716Z,-1.90
2023-03-11T21:58:57.253Z,-2.53
2023-03-11T22:01:25.649Z,-2.13
2023-03-11T22:03:56.601Z,-2.09
2023-03-11T22:06:25.157Z,-2.34
2023-03-11T22:08:54.132Z,-2.30
2023-03-11T22:11:22.433Z,-2.29
2023-03-11T22:13:52.619Z,-2.23
2023-03-11T22:16:22.870Z,-2.49
2023-03-11T22:18:51.802Z,-2.26
2023-03-11T22:21:22.133Z,-2.22
2023-03-11T22:23:50.703Z,-2.30
2023-03-11T22:26:19.182Z,-2.26
2023-03-11T22:28:47.486Z,-2.18
2023-03-11T22:31:18.413Z,-2.29
2023-03-11T22:33:47.101Z,-2.40
2023-03-11T22:36:15.722Z,-1.81
2023-03-11T22:38:45.450Z,-2.52
2023-03-11T22:41:16.719Z,-2.48
2023-03-11T22:43:44.962Z,-2.47
2023-03-11T22:46:13.514Z,-2.32
2023-03-11T22:48:42.064Z,-2.56
2023-03-11T22:51:10.448Z,-2.38
2023-03-11T22:53:38.698Z,-2.56
2023-03-11T22:56:15.420Z,-2.43
2023-03-11T22:58:44.348Z,-2.61
2023-03-11T23:01:13.109Z,-2.65
2023-03-11T23:03:43.875Z,-2.67
2023-03-11T23:06:16.860Z,-2.68
2023-03-11T23:08:45.636Z,-2.89
2023-03-11T23:11:18.535Z,-2.73
2023-03-11T23:13:46.896Z,-2.85
2023-03-11T23:16:18.473Z,-2.75
2023-03-11T23:18:48.816Z,-2.78
2023-03-11T23:21:19.851Z,-2.88
2023-03-11T23:23:48.973Z,-2.98
2023-03-11T23:26:20.412Z,-3.07
2023-03-11T23:28:51.115Z,-2.91
2023-03-11T23:31:20.864Z,-3.02
2023-03-11T23:33:49.388Z,-2.86
2023-03-11T23:36:20.220Z,-2.94
2023-03-11T23:38:49.746Z,-2.92
2023-03-11T23:41:23.659Z,-3.03
2023-03-11T23:43:52.392Z,-2.32
2023-03-11T23:46:20.745Z,-3.02
2023-03-11T23:48:49.020Z,-3.06
2023-03-11T23:51:17.459Z,-2.97
2023-03-11T23:53:45.749Z,-3.04
2023-03-11T23:56:16.998Z,-3.28
2023-03-11T23:58:47.764Z,-3.16
